sensor_id;sensor_type;location;lat;lon;timestamp;P1;durP1;ratioP1;P2;durP2;ratioP2
45408;SDS011;31162;51.076;3.784;2022-09-03T00:00:31;11.75;;;10.73;;
45408;SDS011;31162;51.076;3.784;2022-09-03T00:03:05;12.50;;;11.30;;
45408;SDS011;31162;51.076;3.784;2022-09-03T00:08:54;11.90;;;10.77;;
45408;SDS011;31162;51.076;3.784;2022-09-03T00:11:45;11.15;;;10.25;;
45408;SDS011;31162;51.076;3.784;2022-09-03T00:14:14;11.43;;;10.43;;
45408;SDS011;31162;51.076;3.784;2022-09-03T00:16:52;12.13;;;10.65;;
45408;SDS011;31162;51.076;3.784;2022-09-03T00:19:33;11.75;;;10.77;;
45408;SDS011;31162;51.076;3.784;2022-09-03T00:22:22;11.00;;;9.93;;
45408;SDS011;31162;51.076;3.784;2022-09-03T00:24:52;11.88;;;10.70;;
45408;SDS011;31162;51.076;3.784;2022-09-03T00:27:24;12.05;;;11.05;;
45408;SDS011;31162;51.076;3.784;2022-09-03T00:30:14;12.05;;;11.15;;
45408;SDS011;31162;51.076;3.784;2022-09-03T00:35:22;12.13;;;10.88;;
45408;SDS011;31162;51.076;3.784;2022-09-03T00:38:09;11.63;;;10.52;;
45408;SDS011;31162;51.076;3.784;2022-09-03T00:40:41;12.90;;;11.52;;
45408;SDS011;31162;51.076;3.784;2022-09-03T00:43:34;13.27;;;11.95;;
45408;SDS011;31162;51.076;3.784;2022-09-03T00:46:18;13.77;;;12.38;;
45408;SDS011;31162;51.076;3.784;2022-09-03T00:49:01;14.27;;;13.07;;
45408;SDS011;31162;51.076;3.784;2022-09-03T00:54:26;14.32;;;12.88;;
45408;SDS011;31162;51.076;3.784;2022-09-03T00:57:19;13.13;;;12.02;;
45408;SDS011;31162;51.076;3.784;2022-09-03T01:25:16;13.65;;;12.38;;
45408;SDS011;31162;51.076;3.784;2022-09-03T01:30:27;14.88;;;13.45;;
45408;SDS011;31162;51.076;3.784;2022-09-03T01:33:02;14.85;;;13.55;;
45408;SDS011;31162;51.076;3.784;2022-09-03T01:35:35;15.05;;;13.70;;
45408;SDS011;31162;51.076;3.784;2022-09-03T01:43:47;15.45;;;14.05;;
45408;SDS011;31162;51.076;3.784;2022-09-03T01:46:36;15.60;;;14.05;;
45408;SDS011;31162;51.076;3.784;2022-09-03T01:51:46;15.23;;;13.93;;
45408;SDS011;31162;51.076;3.784;2022-09-03T01:54:25;16.23;;;14.73;;
45408;SDS011;31162;51.076;3.784;2022-09-03T02:02:35;16.60;;;15.20;;
45408;SDS011;31162;51.076;3.784;2022-09-03T02:07:39;16.83;;;15.35;;
45408;SDS011;31162;51.076;3.784;2022-09-03T02:10:08;17.63;;;16.02;;
45408;SDS011;31162;51.076;3.784;2022-09-03T02:13:04;16.45;;;14.93;;
45408;SDS011;31162;51.076;3.784;2022-09-03T02:15:34;16.35;;;15.05;;
45408;SDS011;31162;51.076;3.784;2022-09-03T02:18:02;18.75;;;17.02;;
45408;SDS011;31162;51.076;3.784;2022-09-03T02:20:32;18.58;;;17.08;;
45408;SDS011;31162;51.076;3.784;2022-09-03T02:22:58;17.95;;;16.40;;
45408;SDS011;31162;51.076;3.784;2022-09-03T02:25:28;18.00;;;16.50;;
45408;SDS011;31162;51.076;3.784;2022-09-03T02:28:02;17.90;;;16.42;;
45408;SDS011;31162;51.076;3.784;2022-09-03T02:30:29;16.63;;;15.23;;
45408;SDS011;31162;51.076;3.784;2022-09-03T02:32:55;16.63;;;15.23;;
45408;SDS011;31162;51.076;3.784;2022-09-03T02:35:21;17.77;;;16.27;;
45408;SDS011;31162;51.076;3.784;2022-09-03T02:37:46;16.55;;;15.23;;
45408;SDS011;31162;51.076;3.784;2022-09-03T02:40:12;16.95;;;15.50;;
45408;SDS011;31162;51.076;3.784;2022-09-03T02:42:38;15.98;;;14.68;;
45408;SDS011;31162;51.076;3.784;2022-09-03T02:45:09;17.20;;;15.80;;
45408;SDS011;31162;51.076;3.784;2022-09-03T02:47:44;17.58;;;16.00;;
45408;SDS011;31162;51.076;3.784;2022-09-03T02:50:14;18.17;;;16.67;;
45408;SDS011;31162;51.076;3.784;2022-09-03T02:52:39;17.90;;;16.40;;
45408;SDS011;31162;51.076;3.784;2022-09-03T02:55:05;20.27;;;18.48;;
45408;SDS011;31162;51.076;3.784;2022-09-03T02:57:31;18.35;;;16.70;;
45408;SDS011;31162;51.076;3.784;2022-09-03T02:59:56;17.73;;;16.30;;
45408;SDS011;31162;51.076;3.784;2022-09-03T03:02:22;18.80;;;17.08;;
45408;SDS011;31162;51.076;3.784;2022-09-03T03:04:48;18.30;;;16.60;;
45408;SDS011;31162;51.076;3.784;2022-09-03T03:07:14;17.95;;;16.48;;
45408;SDS011;31162;51.076;3.784;2022-09-03T03:09:39;18.20;;;16.52;;
45408;SDS011;31162;51.076;3.784;2022-09-03T03:12:05;17.73;;;16.33;;
45408;SDS011;31162;51.076;3.784;2022-09-03T03:14:33;17.42;;;16.02;;
45408;SDS011;31162;51.076;3.784;2022-09-03T03:16:59;17.25;;;15.70;;
45408;SDS011;31162;51.076;3.784;2022-09-03T03:19:33;17.42;;;15.93;;
45408;SDS011;31162;51.076;3.784;2022-09-03T03:21:58;18.95;;;17.13;;
45408;SDS011;31162;51.076;3.784;2022-09-03T03:24:24;18.33;;;16.73;;
45408;SDS011;31162;51.076;3.784;2022-09-03T03:26:50;17.88;;;16.38;;
45408;SDS011;31162;51.076;3.784;2022-09-03T03:29:20;18.50;;;16.88;;
45408;SDS011;31162;51.076;3.784;2022-09-03T03:31:45;19.17;;;17.50;;
45408;SDS011;31162;51.076;3.784;2022-09-03T03:34:11;19.33;;;17.55;;
45408;SDS011;31162;51.076;3.784;2022-09-03T03:36:37;20.02;;;18.40;;
45408;SDS011;31162;51.076;3.784;2022-09-03T03:39:02;17.58;;;15.93;;
45408;SDS011;31162;51.076;3.784;2022-09-03T03:41:30;19.13;;;17.42;;
45408;SDS011;31162;51.076;3.784;2022-09-03T03:43:59;18.40;;;16.90;;
45408;SDS011;31162;51.076;3.784;2022-09-03T03:46:30;19.83;;;18.05;;
45408;SDS011;31162;51.076;3.784;2022-09-03T03:49:00;20.95;;;18.85;;
45408;SDS011;31162;51.076;3.784;2022-09-03T03:51:26;19.55;;;17.73;;
45408;SDS011;31162;51.076;3.784;2022-09-03T03:53:53;21.63;;;19.50;;
45408;SDS011;31162;51.076;3.784;2022-09-03T03:56:20;21.38;;;19.23;;
45408;SDS011;31162;51.076;3.784;2022-09-03T03:58:47;20.90;;;18.90;;
45408;SDS011;31162;51.076;3.784;2022-09-03T04:01:17;20.35;;;18.38;;
45408;SDS011;31162;51.076;3.784;2022-09-03T04:03:44;20.08;;;18.27;;
45408;SDS011;31162;51.076;3.784;2022-09-03T04:06:11;20.92;;;19.23;;
45408;SDS011;31162;51.076;3.784;2022-09-03T04:08:40;20.13;;;18.42;;
45408;SDS011;31162;51.076;3.784;2022-09-03T04:11:08;19.77;;;18.17;;
45408;SDS011;31162;51.076;3.784;2022-09-03T04:13:36;19.85;;;18.05;;
45408;SDS011;31162;51.076;3.784;2022-09-03T04:16:14;20.02;;;18.13;;
45408;SDS011;31162;51.076;3.784;2022-09-03T04:18:42;18.75;;;17.15;;
45408;SDS011;31162;51.076;3.784;2022-09-03T04:21:13;19.20;;;17.33;;
45408;SDS011;31162;51.076;3.784;2022-09-03T04:23:41;17.48;;;16.08;;
45408;SDS011;31162;51.076;3.784;2022-09-03T04:26:13;19.48;;;17.77;;
45408;SDS011;31162;51.076;3.784;2022-09-03T04:28:40;19.30;;;17.60;;
45408;SDS011;31162;51.076;3.784;2022-09-03T04:31:07;20.20;;;18.50;;
45408;SDS011;31162;51.076;3.784;2022-09-03T04:33:34;20.45;;;18.75;;
45408;SDS011;31162;51.076;3.784;2022-09-03T04:36:19;21.02;;;19.13;;
45408;SDS011;31162;51.076;3.784;2022-09-03T04:38:47;20.85;;;18.95;;
45408;SDS011;31162;51.076;3.784;2022-09-03T04:41:18;21.10;;;19.05;;
45408;SDS011;31162;51.076;3.784;2022-09-03T04:43:46;21.20;;;19.45;;
45408;SDS011;31162;51.076;3.784;2022-09-03T04:46:13;21.02;;;19.25;;
45408;SDS011;31162;51.076;3.784;2022-09-03T04:48:41;21.83;;;19.92;;
45408;SDS011;31162;51.076;3.784;2022-09-03T04:53:36;21.58;;;19.67;;
45408;SDS011;31162;51.076;3.784;2022-09-03T04:56:10;23.00;;;21.10;;
45408;SDS011;31162;51.076;3.784;2022-09-03T04:58:37;22.98;;;20.70;;
45408;SDS011;31162;51.076;3.784;2022-09-03T05:01:07;23.10;;;21.02;;
45408;SDS011;31162;51.076;3.784;2022-09-03T05:03:34;22.85;;;20.65;;
45408;SDS011;31162;51.076;3.784;2022-09-03T05:06:01;20.75;;;18.92;;
45408;SDS011;31162;51.076;3.784;2022-09-03T05:08:30;22.30;;;20.27;;
45408;SDS011;31162;51.076;3.784;2022-09-03T05:10:57;23.58;;;21.30;;
45408;SDS011;31162;51.076;3.784;2022-09-03T05:13:24;23.98;;;21.52;;
45408;SDS011;31162;51.076;3.784;2022-09-03T05:15:50;24.17;;;21.98;;
45408;SDS011;31162;51.076;3.784;2022-09-03T05:18:16;22.77;;;20.88;;
45408;SDS011;31162;51.076;3.784;2022-09-03T05:20:41;23.38;;;21.17;;
45408;SDS011;31162;51.076;3.784;2022-09-03T05:23:07;23.42;;;21.33;;
45408;SDS011;31162;51.076;3.784;2022-09-03T05:25:33;24.05;;;21.80;;
45408;SDS011;31162;51.076;3.784;2022-09-03T05:27:58;23.75;;;21.65;;
45408;SDS011;31162;51.076;3.784;2022-09-03T05:30:25;24.00;;;21.80;;
45408;SDS011;31162;51.076;3.784;2022-09-03T05:32:50;25.40;;;23.17;;
45408;SDS011;31162;51.076;3.784;2022-09-03T05:35:16;23.50;;;21.50;;
45408;SDS011;31162;51.076;3.784;2022-09-03T05:37:42;23.70;;;21.67;;
45408;SDS011;31162;51.076;3.784;2022-09-03T05:40:08;22.95;;;20.95;;
45408;SDS011;31162;51.076;3.784;2022-09-03T05:42:37;24.08;;;21.70;;
45408;SDS011;31162;51.076;3.784;2022-09-03T05:45:07;23.42;;;21.40;;
45408;SDS011;31162;51.076;3.784;2022-09-03T05:50:05;22.95;;;20.70;;
45408;SDS011;31162;51.076;3.784;2022-09-03T05:52:33;22.52;;;20.63;;
45408;SDS011;31162;51.076;3.784;2022-09-03T05:54:59;22.70;;;20.75;;
45408;SDS011;31162;51.076;3.784;2022-09-03T05:57:24;21.98;;;19.98;;
45408;SDS011;31162;51.076;3.784;2022-09-03T05:59:50;21.90;;;19.90;;
45408;SDS011;31162;51.076;3.784;2022-09-03T06:02:16;21.80;;;20.00;;
45408;SDS011;31162;51.076;3.784;2022-09-03T06:04:43;22.35;;;20.25;;
45408;SDS011;31162;51.076;3.784;2022-09-03T06:07:10;21.80;;;20.00;;
45408;SDS011;31162;51.076;3.784;2022-09-03T06:09:36;22.30;;;20.35;;
45408;SDS011;31162;51.076;3.784;2022-09-03T06:12:02;21.13;;;19.25;;
45408;SDS011;31162;51.076;3.784;2022-09-03T06:14:27;22.45;;;20.55;;
45408;SDS011;31162;51.076;3.784;2022-09-03T06:16:53;22.25;;;20.25;;
45408;SDS011;31162;51.076;3.784;2022-09-03T06:19:20;22.42;;;20.42;;
45408;SDS011;31162;51.076;3.784;2022-09-03T06:21:46;21.92;;;19.92;;
45408;SDS011;31162;51.076;3.784;2022-09-03T06:24:16;21.90;;;19.95;;
45408;SDS011;31162;51.076;3.784;2022-09-03T06:26:44;20.95;;;19.05;;
45408;SDS011;31162;51.076;3.784;2022-09-03T06:29:10;22.38;;;20.38;;
45408;SDS011;31162;51.076;3.784;2022-09-03T06:31:36;21.38;;;19.58;;
45408;SDS011;31162;51.076;3.784;2022-09-03T06:34:03;19.60;;;18.02;;
45408;SDS011;31162;51.076;3.784;2022-09-03T06:36:29;20.05;;;18.27;;
45408;SDS011;31162;51.076;3.784;2022-09-03T06:38:56;20.98;;;19.05;;
45408;SDS011;31162;51.076;3.784;2022-09-03T06:41:25;20.65;;;18.75;;
45408;SDS011;31162;51.076;3.784;2022-09-03T06:43:57;21.83;;;19.95;;
45408;SDS011;31162;51.076;3.784;2022-09-03T06:46:27;21.48;;;19.67;;
45408;SDS011;31162;51.076;3.784;2022-09-03T06:48:54;21.23;;;19.05;;
45408;SDS011;31162;51.076;3.784;2022-09-03T06:51:23;21.90;;;19.85;;
45408;SDS011;31162;51.076;3.784;2022-09-03T06:53:51;21.52;;;19.40;;
45408;SDS011;31162;51.076;3.784;2022-09-03T06:56:22;21.92;;;19.73;;
45408;SDS011;31162;51.076;3.784;2022-09-03T06:58:54;22.15;;;20.10;;
45408;SDS011;31162;51.076;3.784;2022-09-03T07:01:23;22.80;;;20.83;;
45408;SDS011;31162;51.076;3.784;2022-09-03T07:03:54;22.40;;;20.65;;
45408;SDS011;31162;51.076;3.784;2022-09-03T07:06:21;22.75;;;20.75;;
45408;SDS011;31162;51.076;3.784;2022-09-03T07:08:48;23.42;;;21.33;;
45408;SDS011;31162;51.076;3.784;2022-09-03T07:11:15;23.40;;;21.17;;
45408;SDS011;31162;51.076;3.784;2022-09-03T07:13:44;22.70;;;20.67;;
45408;SDS011;31162;51.076;3.784;2022-09-03T07:18:41;22.20;;;20.20;;
45408;SDS011;31162;51.076;3.784;2022-09-03T07:21:12;22.88;;;21.00;;
45408;SDS011;31162;51.076;3.784;2022-09-03T07:23:42;22.25;;;20.25;;
45408;SDS011;31162;51.076;3.784;2022-09-03T07:26:13;22.20;;;20.17;;
45408;SDS011;31162;51.076;3.784;2022-09-03T07:28:44;23.10;;;21.20;;
45408;SDS011;31162;51.076;3.784;2022-09-03T07:31:19;19.83;;;18.02;;
45408;SDS011;31162;51.076;3.784;2022-09-03T07:33:49;21.75;;;19.95;;
45408;SDS011;31162;51.076;3.784;2022-09-03T07:36:19;21.38;;;19.27;;
45408;SDS011;31162;51.076;3.784;2022-09-03T07:38:46;19.73;;;18.00;;
45408;SDS011;31162;51.076;3.784;2022-09-03T07:41:12;19.70;;;17.90;;
45408;SDS011;31162;51.076;3.784;2022-09-03T07:43:42;20.02;;;18.38;;
45408;SDS011;31162;51.076;3.784;2022-09-03T07:46:16;20.63;;;18.70;;
45408;SDS011;31162;51.076;3.784;2022-09-03T07:48:46;20.17;;;18.38;;
45408;SDS011;31162;51.076;3.784;2022-09-03T07:51:13;18.65;;;17.05;;
45408;SDS011;31162;51.076;3.784;2022-09-03T07:53:45;19.60;;;17.83;;
45408;SDS011;31162;51.076;3.784;2022-09-03T07:56:14;19.77;;;17.88;;
45408;SDS011;31162;51.076;3.784;2022-09-03T07:58:40;19.35;;;17.35;;
45408;SDS011;31162;51.076;3.784;2022-09-03T08:01:12;20.00;;;18.27;;
45408;SDS011;31162;51.076;3.784;2022-09-03T08:03:47;18.58;;;16.65;;
45408;SDS011;31162;51.076;3.784;2022-09-03T08:06:15;18.40;;;16.77;;
45408;SDS011;31162;51.076;3.784;2022-09-03T08:08:43;17.38;;;15.77;;
45408;SDS011;31162;51.076;3.784;2022-09-03T08:11:15;17.67;;;16.17;;
45408;SDS011;31162;51.076;3.784;2022-09-03T08:13:47;18.73;;;17.23;;
45408;SDS011;31162;51.076;3.784;2022-09-03T08:16:28;18.45;;;16.25;;
45408;SDS011;31162;51.076;3.784;2022-09-03T08:18:55;16.23;;;14.50;;
45408;SDS011;31162;51.076;3.784;2022-09-03T08:21:22;15.35;;;13.95;;
45408;SDS011;31162;51.076;3.784;2022-09-03T08:23:48;14.95;;;13.63;;
45408;SDS011;31162;51.076;3.784;2022-09-03T08:26:16;14.23;;;12.95;;
45408;SDS011;31162;51.076;3.784;2022-09-03T08:28:44;12.95;;;11.85;;
45408;SDS011;31162;51.076;3.784;2022-09-03T08:31:11;13.48;;;12.18;;
45408;SDS011;31162;51.076;3.784;2022-09-03T08:33:46;11.38;;;10.38;;
45408;SDS011;31162;51.076;3.784;2022-09-03T08:36:14;11.50;;;10.50;;
45408;SDS011;31162;51.076;3.784;2022-09-03T08:38:43;10.65;;;9.63;;
45408;SDS011;31162;51.076;3.784;2022-09-03T08:41:14;9.45;;;8.55;;
45408;SDS011;31162;51.076;3.784;2022-09-03T08:52:05;8.52;;;7.78;;
45408;SDS011;31162;51.076;3.784;2022-09-03T08:54:42;9.25;;;8.45;;
45408;SDS011;31162;51.076;3.784;2022-09-03T08:57:08;9.25;;;8.35;;
45408;SDS011;31162;51.076;3.784;2022-09-03T08:59:34;9.65;;;8.85;;
45408;SDS011;31162;51.076;3.784;2022-09-03T09:02:20;9.45;;;8.63;;
45408;SDS011;31162;51.076;3.784;2022-09-03T09:04:56;9.63;;;8.77;;
45408;SDS011;31162;51.076;3.784;2022-09-03T09:07:29;10.10;;;8.07;;
45408;SDS011;31162;51.076;3.784;2022-09-03T09:21:30;7.75;;;7.13;;
45408;SDS011;31162;51.076;3.784;2022-09-03T09:24:03;7.90;;;7.15;;
45408;SDS011;31162;51.076;3.784;2022-09-03T09:26:37;8.55;;;7.00;;
45408;SDS011;31162;51.076;3.784;2022-09-03T09:29:06;7.10;;;6.40;;
45408;SDS011;31162;51.076;3.784;2022-09-03T09:31:37;7.80;;;7.10;;
45408;SDS011;31162;51.076;3.784;2022-09-03T09:34:04;6.82;;;6.20;;
45408;SDS011;31162;51.076;3.784;2022-09-03T09:36:34;8.18;;;7.03;;
45408;SDS011;31162;51.076;3.784;2022-09-03T09:39:11;8.18;;;7.55;;
45408;SDS011;31162;51.076;3.784;2022-09-03T09:41:41;8.65;;;6.57;;
45408;SDS011;31162;51.076;3.784;2022-09-03T09:44:17;8.27;;;7.30;;
45408;SDS011;31162;51.076;3.784;2022-09-03T09:46:44;8.57;;;7.85;;
45408;SDS011;31162;51.076;3.784;2022-09-03T09:52:13;8.15;;;7.55;;
45408;SDS011;31162;51.076;3.784;2022-09-03T09:54:41;8.00;;;7.32;;
45408;SDS011;31162;51.076;3.784;2022-09-03T09:57:17;7.63;;;7.03;;
45408;SDS011;31162;51.076;3.784;2022-09-03T09:59:47;7.47;;;6.88;;
45408;SDS011;31162;51.076;3.784;2022-09-03T10:02:24;7.68;;;6.95;;
45408;SDS011;31162;51.076;3.784;2022-09-03T10:04:52;8.15;;;7.35;;
45408;SDS011;31162;51.076;3.784;2022-09-03T10:07:30;6.93;;;6.43;;
45408;SDS011;31162;51.076;3.784;2022-09-03T10:10:01;9.10;;;7.47;;
45408;SDS011;31162;51.076;3.784;2022-09-03T10:12:31;7.95;;;7.07;;
45408;SDS011;31162;51.076;3.784;2022-09-03T10:15:07;7.28;;;6.63;;
45408;SDS011;31162;51.076;3.784;2022-09-03T10:18:06;8.02;;;7.32;;
45408;SDS011;31162;51.076;3.784;2022-09-03T10:20:50;8.23;;;7.43;;
45408;SDS011;31162;51.076;3.784;2022-09-03T10:23:28;7.45;;;6.68;;
45408;SDS011;31162;51.076;3.784;2022-09-03T10:26:05;7.95;;;6.70;;
45408;SDS011;31162;51.076;3.784;2022-09-03T10:28:36;7.63;;;6.97;;
45408;SDS011;31162;51.076;3.784;2022-09-03T10:31:23;7.20;;;6.57;;
45408;SDS011;31162;51.076;3.784;2022-09-03T10:34:09;7.18;;;6.47;;
45408;SDS011;31162;51.076;3.784;2022-09-03T10:37:01;6.50;;;5.95;;
45408;SDS011;31162;51.076;3.784;2022-09-03T10:56:06;6.45;;;5.85;;
45408;SDS011;31162;51.076;3.784;2022-09-03T11:07:00;6.82;;;6.22;;
45408;SDS011;31162;51.076;3.784;2022-09-03T11:12:37;6.28;;;5.68;;
45408;SDS011;31162;51.076;3.784;2022-09-03T11:15:08;5.47;;;5.07;;
45408;SDS011;31162;51.076;3.784;2022-09-03T11:17:41;5.75;;;5.15;;
45408;SDS011;31162;51.076;3.784;2022-09-03T11:20:16;5.95;;;5.32;;
45408;SDS011;31162;51.076;3.784;2022-09-03T11:22:44;6.30;;;5.90;;
45408;SDS011;31162;51.076;3.784;2022-09-03T11:25:13;6.00;;;5.53;;
45408;SDS011;31162;51.076;3.784;2022-09-03T11:35:14;5.20;;;4.80;;
45408;SDS011;31162;51.076;3.784;2022-09-03T11:38:05;4.95;;;4.30;;
45408;SDS011;31162;51.076;3.784;2022-09-03T11:40:56;6.00;;;5.47;;
45408;SDS011;31162;51.076;3.784;2022-09-03T11:46:00;6.07;;;5.53;;
45408;SDS011;31162;51.076;3.784;2022-09-03T11:48:39;6.75;;;6.10;;
45408;SDS011;31162;51.076;3.784;2022-09-03T11:54:06;7.35;;;5.20;;
45408;SDS011;31162;51.076;3.784;2022-09-03T11:56:38;6.90;;;4.97;;
45408;SDS011;31162;51.076;3.784;2022-09-03T12:01:43;4.88;;;4.53;;
45408;SDS011;31162;51.076;3.784;2022-09-03T12:04:12;5.85;;;4.75;;
45408;SDS011;31162;51.076;3.784;2022-09-03T12:19:52;5.45;;;4.95;;
45408;SDS011;31162;51.076;3.784;2022-09-03T12:22:21;5.57;;;5.18;;
45408;SDS011;31162;51.076;3.784;2022-09-03T12:24:49;5.85;;;5.15;;
45408;SDS011;31162;51.076;3.784;2022-09-03T12:27:19;4.95;;;4.55;;
45408;SDS011;31162;51.076;3.784;2022-09-03T12:29:57;4.68;;;4.38;;
45408;SDS011;31162;51.076;3.784;2022-09-03T12:32:29;8.50;;;6.63;;
45408;SDS011;31162;51.076;3.784;2022-09-03T12:34:57;4.95;;;4.55;;
45408;SDS011;31162;51.076;3.784;2022-09-03T12:37:33;6.10;;;4.40;;
45408;SDS011;31162;51.076;3.784;2022-09-03T12:40:02;3.45;;;3.15;;
45408;SDS011;31162;51.076;3.784;2022-09-03T12:42:31;3.13;;;2.70;;
45408;SDS011;31162;51.076;3.784;2022-09-03T12:45:04;2.85;;;2.42;;
45408;SDS011;31162;51.076;3.784;2022-09-03T12:47:37;3.90;;;2.80;;
45408;SDS011;31162;51.076;3.784;2022-09-03T12:50:25;3.00;;;2.80;;
45408;SDS011;31162;51.076;3.784;2022-09-03T12:52:55;4.35;;;3.40;;
45408;SDS011;31162;51.076;3.784;2022-09-03T13:00:50;4.10;;;3.75;;
45408;SDS011;31162;51.076;3.784;2022-09-03T13:06:22;4.88;;;4.47;;
45408;SDS011;31162;51.076;3.784;2022-09-03T13:09:14;5.03;;;4.53;;
45408;SDS011;31162;51.076;3.784;2022-09-03T13:11:43;5.40;;;4.90;;
45408;SDS011;31162;51.076;3.784;2022-09-03T13:14:10;4.93;;;4.47;;
45408;SDS011;31162;51.076;3.784;2022-09-03T13:35:26;4.35;;;3.65;;
45408;SDS011;31162;51.076;3.784;2022-09-03T13:38:05;4.55;;;3.83;;
45408;SDS011;31162;51.076;3.784;2022-09-03T13:40:43;8.02;;;3.75;;
45408;SDS011;31162;51.076;3.784;2022-09-03T13:43:26;4.70;;;3.92;;
45408;SDS011;31162;51.076;3.784;2022-09-03T13:46:40;4.20;;;3.65;;
45408;SDS011;31162;51.076;3.784;2022-09-03T13:52:24;4.32;;;3.90;;
45408;SDS011;31162;51.076;3.784;2022-09-03T13:55:06;4.82;;;3.90;;
45408;SDS011;31162;51.076;3.784;2022-09-03T13:57:38;4.32;;;3.75;;
45408;SDS011;31162;51.076;3.784;2022-09-03T14:03:30;3.70;;;3.40;;
45408;SDS011;31162;51.076;3.784;2022-09-03T14:06:10;3.67;;;3.38;;
45408;SDS011;31162;51.076;3.784;2022-09-03T14:12:03;4.88;;;3.92;;
45408;SDS011;31162;51.076;3.784;2022-09-03T14:17:11;3.67;;;3.38;;
45408;SDS011;31162;51.076;3.784;2022-09-03T14:22:56;6.97;;;3.90;;
45408;SDS011;31162;51.076;3.784;2022-09-03T14:25:32;5.57;;;3.03;;
45408;SDS011;31162;51.076;3.784;2022-09-03T14:31:25;4.90;;;3.30;;
45408;SDS011;31162;51.076;3.784;2022-09-03T14:34:07;4.03;;;3.60;;
45408;SDS011;31162;51.076;3.784;2022-09-03T14:39:43;4.88;;;3.22;;
45408;SDS011;31162;51.076;3.784;2022-09-03T14:42:35;4.00;;;3.47;;
45408;SDS011;31162;51.076;3.784;2022-09-03T15:00:17;3.60;;;3.30;;
45408;SDS011;31162;51.076;3.784;2022-09-03T15:11:19;3.17;;;2.72;;
45408;SDS011;31162;51.076;3.784;2022-09-03T15:13:51;4.35;;;3.97;;
45408;SDS011;31162;51.076;3.784;2022-09-03T15:16:45;4.22;;;3.00;;
45408;SDS011;31162;51.076;3.784;2022-09-03T15:28:10;2.80;;;2.55;;
45408;SDS011;31162;51.076;3.784;2022-09-03T15:30:54;3.35;;;3.05;;
45408;SDS011;31162;51.076;3.784;2022-09-03T15:33:34;3.85;;;3.10;;
45408;SDS011;31162;51.076;3.784;2022-09-03T15:36:21;3.30;;;2.80;;
45408;SDS011;31162;51.076;3.784;2022-09-03T15:39:05;2.75;;;2.55;;
45408;SDS011;31162;51.076;3.784;2022-09-03T15:44:22;2.78;;;2.58;;
45408;SDS011;31162;51.076;3.784;2022-09-03T15:52:14;2.90;;;2.33;;
45408;SDS011;31162;51.076;3.784;2022-09-03T15:54:45;2.92;;;2.40;;
45408;SDS011;31162;51.076;3.784;2022-09-03T15:59:57;3.55;;;2.72;;
45408;SDS011;31162;51.076;3.784;2022-09-03T16:08:11;2.40;;;2.20;;
45408;SDS011;31162;51.076;3.784;2022-09-03T16:10:47;2.65;;;2.40;;
45408;SDS011;31162;51.076;3.784;2022-09-03T16:13:43;2.63;;;2.42;;
45408;SDS011;31162;51.076;3.784;2022-09-03T16:19:33;3.83;;;2.33;;
45408;SDS011;31162;51.076;3.784;2022-09-03T16:22:17;2.60;;;2.38;;
45408;SDS011;31162;51.076;3.784;2022-09-03T16:27:32;4.35;;;2.40;;
45408;SDS011;31162;51.076;3.784;2022-09-03T16:32:45;2.72;;;2.10;;
45408;SDS011;31162;51.076;3.784;2022-09-03T16:43:39;3.50;;;1.98;;
45408;SDS011;31162;51.076;3.784;2022-09-03T16:46:30;3.10;;;1.88;;
45408;SDS011;31162;51.076;3.784;2022-09-03T16:49:09;2.25;;;1.88;;
45408;SDS011;31162;51.076;3.784;2022-09-03T16:57:35;2.97;;;2.17;;
45408;SDS011;31162;51.076;3.784;2022-09-03T17:00:10;2.85;;;2.00;;
45408;SDS011;31162;51.076;3.784;2022-09-03T17:13:34;3.17;;;2.22;;
45408;SDS011;31162;51.076;3.784;2022-09-03T17:25:20;3.30;;;2.58;;
45408;SDS011;31162;51.076;3.784;2022-09-03T17:28:05;3.25;;;2.42;;
45408;SDS011;31162;51.076;3.784;2022-09-03T17:36:18;3.25;;;2.88;;
45408;SDS011;31162;51.076;3.784;2022-09-03T17:50:33;3.55;;;3.25;;
45408;SDS011;31162;51.076;3.784;2022-09-03T17:53:18;4.70;;;3.03;;
45408;SDS011;31162;51.076;3.784;2022-09-03T17:55:55;4.18;;;2.92;;
45408;SDS011;31162;51.076;3.784;2022-09-03T18:01:22;5.13;;;3.63;;
45408;SDS011;31162;51.076;3.784;2022-09-03T18:07:05;2.85;;;2.60;;
45408;SDS011;31162;51.076;3.784;2022-09-03T18:09:46;3.63;;;3.20;;
45408;SDS011;31162;51.076;3.784;2022-09-03T18:12:45;5.85;;;2.72;;
45408;SDS011;31162;51.076;3.784;2022-09-03T18:18:19;11.45;;;9.05;;
45408;SDS011;31162;51.076;3.784;2022-09-03T18:20:54;5.80;;;3.25;;
45408;SDS011;31162;51.076;3.784;2022-09-03T18:23:51;5.20;;;3.20;;
45408;SDS011;31162;51.076;3.784;2022-09-03T18:26:51;4.43;;;3.25;;
45408;SDS011;31162;51.076;3.784;2022-09-03T18:29:46;3.05;;;2.85;;
45408;SDS011;31162;51.076;3.784;2022-09-03T18:32:51;4.68;;;3.50;;
45408;SDS011;31162;51.076;3.784;2022-09-03T18:35:35;3.38;;;3.08;;
45408;SDS011;31162;51.076;3.784;2022-09-03T18:38:26;3.40;;;3.10;;
45408;SDS011;31162;51.076;3.784;2022-09-03T18:47:40;4.82;;;3.83;;
45408;SDS011;31162;51.076;3.784;2022-09-03T18:53:38;7.13;;;5.15;;
45408;SDS011;31162;51.076;3.784;2022-09-03T18:56:47;10.65;;;7.15;;
45408;SDS011;31162;51.076;3.784;2022-09-03T19:02:52;6.88;;;4.97;;
45408;SDS011;31162;51.076;3.784;2022-09-03T19:17:37;5.38;;;4.28;;
45408;SDS011;31162;51.076;3.784;2022-09-03T19:20:59;6.97;;;4.97;;
45408;SDS011;31162;51.076;3.784;2022-09-03T19:23:44;5.47;;;5.00;;
45408;SDS011;31162;51.076;3.784;2022-09-03T19:26:39;6.30;;;5.70;;
45408;SDS011;31162;51.076;3.784;2022-09-03T19:32:56;5.38;;;4.90;;
45408;SDS011;31162;51.076;3.784;2022-09-03T19:35:47;5.68;;;5.18;;
45408;SDS011;31162;51.076;3.784;2022-09-03T19:38:59;5.53;;;5.03;;
45408;SDS011;31162;51.076;3.784;2022-09-03T19:41:55;4.90;;;4.47;;
45408;SDS011;31162;51.076;3.784;2022-09-03T19:44:49;9.68;;;5.15;;
45408;SDS011;31162;51.076;3.784;2022-09-03T19:51:11;4.88;;;4.47;;
45408;SDS011;31162;51.076;3.784;2022-09-03T19:54:01;5.28;;;4.50;;
45408;SDS011;31162;51.076;3.784;2022-09-03T19:56:48;5.68;;;5.18;;
45408;SDS011;31162;51.076;3.784;2022-09-03T19:59:38;4.78;;;4.38;;
45408;SDS011;31162;51.076;3.784;2022-09-03T20:02:24;5.18;;;4.68;;
45408;SDS011;31162;51.076;3.784;2022-09-03T20:05:18;6.45;;;5.13;;
45408;SDS011;31162;51.076;3.784;2022-09-03T20:08:03;5.03;;;4.63;;
45408;SDS011;31162;51.076;3.784;2022-09-03T20:10:50;5.63;;;5.10;;
45408;SDS011;31162;51.076;3.784;2022-09-03T20:13:20;6.68;;;4.47;;
45408;SDS011;31162;51.076;3.784;2022-09-03T20:18:58;6.60;;;4.95;;
45408;SDS011;31162;51.076;3.784;2022-09-03T20:23:43;6.72;;;4.95;;
45408;SDS011;31162;51.076;3.784;2022-09-03T20:29:28;6.65;;;4.43;;
45408;SDS011;31162;51.076;3.784;2022-09-03T20:35:50;4.80;;;4.50;;
45408;SDS011;31162;51.076;3.784;2022-09-03T20:44:26;5.22;;;4.72;;
45408;SDS011;31162;51.076;3.784;2022-09-03T20:47:37;5.90;;;4.75;;
45408;SDS011;31162;51.076;3.784;2022-09-03T20:53:22;5.80;;;5.15;;
45408;SDS011;31162;51.076;3.784;2022-09-03T20:56:10;6.72;;;5.50;;
45408;SDS011;31162;51.076;3.784;2022-09-03T20:58:57;6.07;;;5.60;;
45408;SDS011;31162;51.076;3.784;2022-09-03T21:06:58;6.93;;;6.32;;
45408;SDS011;31162;51.076;3.784;2022-09-03T21:09:44;7.15;;;6.45;;
45408;SDS011;31162;51.076;3.784;2022-09-03T21:12:37;6.82;;;6.13;;
45408;SDS011;31162;51.076;3.784;2022-09-03T21:15:15;6.85;;;6.25;;
45408;SDS011;31162;51.076;3.784;2022-09-03T21:23:34;6.43;;;5.93;;
45408;SDS011;31162;51.076;3.784;2022-09-03T21:28:48;6.82;;;6.22;;